Time;durP1;ratioP1;P1;durP2;ratioP2;P2;SDS_P1;SDS_P2;PMS_P1;PMS_P2;Temp;Humidity;BMP_temperature;BMP_pressure;BME280_temperature;BME280_humidity;BME280_pressure;Samples;Min_cycle;Max_cycle;Signal;HPM_P1;HPM_P2
2022/08/17 00:02:16;;;;;;;5.68;2.00;;;;;;;13.93;59.82;100975.31;4997690;28;20041;-43
2022/08/17 00:04:53;;;;;;;6.25;1.98;;;;;;;13.92;59.97;100982.06;5018312;28;20046;-42
2022/08/17 00:07:20;;;;;;;5.47;2.33;;;;;;;13.89;60.21;100974.44;4996525;28;20050;-43
2022/08/17 00:09:46;;;;;;;6.63;2.17;;;;;;;13.87;60.37;100979.53;4992758;28;20137;-43
2022/08/17 00:12:14;;;;;;;7.97;2.55;;;;;;;13.88;60.44;100972.00;5003296;28;20664;-43
2022/08/17 00:15:00;;;;;;;6.70;2.47;;;;;;;13.88;60.62;100975.59;5010203;28;20052;-42
2022/08/17 00:17:27;;;;;;;9.65;2.58;;;;;;;13.87;60.79;100976.75;4995442;28;20133;-43
2022/08/17 00:19:54;;;;;;;7.20;2.55;;;;;;;13.85;60.99;100978.28;4990745;28;20101;-43
2022/08/17 00:22:21;;;;;;;6.93;3.03;;;;;;;13.84;61.03;100976.69;4990640;28;20073;-49
2022/08/17 00:25:06;;;;;;;5.53;2.92;;;;;;;13.85;61.27;100975.50;4990815;28;20547;-43
2022/08/17 00:27:34;;;;;;;4.28;2.75;;;;;;;13.89;61.19;100974.44;5007557;28;20046;-44
2022/08/17 00:30:00;;;;;;;8.25;2.42;;;;;;;13.91;61.35;100972.09;5003155;28;20465;-43
2022/08/17 00:32:27;;;;;;;4.70;2.40;;;;;;;13.93;61.51;100969.75;5003063;28;20053;-43
2022/08/17 00:35:17;;;;;;;12.52;3.97;;;;;;;13.92;61.29;100979.28;4993294;28;20050;-43
2022/08/17 00:37:44;;;;;;;6.57;2.58;;;;;;;13.92;61.62;100964.56;5002731;28;20057;-43
2022/08/17 00:40:13;;;;;;;6.72;2.30;;;;;;;13.88;61.68;100958.88;4997557;28;20120;-43
2022/08/17 00:42:43;;;;;;;5.95;3.00;;;;;;;13.86;61.69;100964.00;4990293;28;20046;-47
2022/08/17 00:45:12;;;;;;;7.07;2.38;;;;;;;13.82;61.71;100965.88;4994223;28;20048;-44
2022/08/17 00:47:40;;;;;;;4.15;2.45;;;;;;;13.82;61.90;100960.31;5004155;28;20107;-44
2022/08/17 00:50:10;;;;;;;6.80;2.92;;;;;;;13.79;61.88;100952.69;4990594;28;20092;-48
2022/08/17 00:52:43;;;;;;;5.25;2.08;;;;;;;13.75;61.93;100960.16;5005595;28;20054;-44
2022/08/17 00:55:10;;;;;;;2.97;1.98;;;;;;;13.78;62.00;100951.09;5008415;28;20040;-43
2022/08/17 00:57:42;;;;;;;7.03;2.58;;;;;;;13.78;62.27;100953.88;4990514;28;20076;-51
2022/08/17 01:00:17;;;;;;;;;;;;;;;13.77;62.30;100948.66;5013854;28;20520;-49
2022/08/17 01:02:46;;;;;;;5.18;2.47;;;;;;;13.78;61.92;100955.84;5008381;28;19931;-43
2022/08/17 01:05:18;;;;;;;5.93;2.90;;;;;;;13.77;62.32;100948.66;5011739;28;20049;-45
2022/08/17 01:07:49;;;;;;;6.65;2.55;;;;;;;13.75;62.54;100957.38;5010226;28;20064;-48
2022/08/17 01:10:21;;;;;;;5.35;2.47;;;;;;;13.71;62.76;100958.47;5013735;28;20072;-43
2022/08/17 01:13:09;;;;;;;5.03;2.67;;;;;;;13.67;62.87;100958.38;5003867;28;20045;-44
2022/08/17 01:15:40;;;;;;;9.27;3.00;;;;;;;13.64;63.15;100953.53;5005786;28;20041;-42
2022/08/17 01:18:13;;;;;;;6.93;2.20;;;;;;;13.62;63.19;100947.53;5000490;28;20037;-46
2022/08/17 01:20:45;;;;;;;9.13;2.55;;;;;;;13.64;63.57;100953.53;5003134;28;20042;-43
2022/08/17 01:23:15;;;;;;;4.22;2.05;;;;;;;13.66;63.49;100945.63;5013855;28;20344;-44
2022/08/17 01:25:50;;;;;;;5.07;2.53;;;;;;;13.68;63.47;100957.22;5015396;28;20076;-43
2022/08/17 01:28:18;;;;;;;7.18;2.45;;;;;;;13.69;63.41;100952.44;5003438;28;20129;-42
2022/08/17 01:31:06;;;;;;;4.40;2.60;;;;;;;13.71;63.67;100950.13;5002055;28;20042;-43
2022/08/17 01:33:34;;;;;;;10.15;2.45;;;;;;;13.72;63.74;100965.63;4983937;28;20042;-43
2022/08/17 01:36:01;;;;;;;5.30;2.45;;;;;;;13.73;63.86;100954.16;5012454;28;20050;-50
2022/08/17 01:38:30;;;;;;;4.88;2.47;;;;;;;13.73;64.09;100970.03;5007492;28;20046;-43
2022/08/17 01:41:05;;;;;;;6.70;2.70;;;;;;;13.74;64.26;100972.44;4996230;28;20393;-43
2022/08/17 01:43:40;;;;;;;10.80;3.30;;;;;;;13.77;64.10;100971.75;5013052;28;20093;-43
2022/08/17 01:46:07;;;;;;;6.47;2.53;;;;;;;13.75;64.01;100976.88;5003791;28;20060;-43
2022/08/17 01:48:37;;;;;;;6.47;2.92;;;;;;;13.79;64.45;100980.53;5011594;28;20050;-43
2022/08/17 01:51:06;;;;;;;7.90;2.10;;;;;;;13.82;64.07;100968.69;4997749;28;20049;-43
2022/08/17 01:53:41;;;;;;;6.53;2.45;;;;;;;13.77;64.20;100980.09;5004212;28;20046;-43
2022/08/17 01:56:11;;;;;;;5.82;2.42;;;;;;;13.69;64.40;100981.09;5004871;28;20052;-43
2022/08/17 01:58:39;;;;;;;9.27;2.40;;;;;;;13.68;64.82;100985.06;5012588;28;20890;-43
2022/08/17 02:01:07;;;;;;;9.23;2.10;;;;;;;13.73;64.84;100983.97;5006368;28;20041;-44
2022/08/17 02:03:35;;;;;;;8.38;3.00;;;;;;;13.73;64.98;100986.75;4993628;28;20046;-43
2022/08/17 02:06:04;;;;;;;6.40;2.42;;;;;;;13.74;64.88;100986.38;5014495;28;20054;-47
2022/08/17 02:08:52;;;;;;;5.55;2.47;;;;;;;13.74;65.07;100983.59;5005898;28;20376;-43
2022/08/17 02:11:30;;;;;;;6.93;2.20;;;;;;;13.77;65.12;100977.31;5005247;28;20041;-44
2022/08/17 02:13:58;;;;;;;7.85;2.95;;;;;;;13.79;65.05;100974.97;5002570;28;20037;-43
2022/08/17 02:16:31;;;;;;;8.95;2.58;;;;;;;13.78;65.10;100972.56;5012735;28;20049;-47
2022/08/17 02:19:09;;;;;;;10.93;2.47;;;;;;;13.78;65.11;100978.13;5008071;28;20420;-44
2022/08/17 02:21:38;;;;;;;7.35;2.00;;;;;;;13.79;65.27;100976.97;5005090;28;20508;-43
2022/08/17 02:24:09;;;;;;;5.75;2.42;;;;;;;13.76;65.53;100984.06;4991491;28;20492;-51
2022/08/17 02:26:36;;;;;;;6.82;1.80;;;;;;;13.74;65.44;100972.44;5000834;28;20046;-43
2022/08/17 02:29:03;;;;;;;6.55;1.75;;;;;;;13.76;65.65;100986.84;5014757;28;20046;-43
2022/08/17 02:31:30;;;;;;;14.38;3.17;;;;;;;13.78;65.61;100976.16;5004107;28;20042;-44
2022/08/17 02:33:57;;;;;;;9.80;3.75;;;;;;;13.81;65.50;100975.44;5009248;28;20125;-44
2022/08/17 02:36:34;;;;;;;7.85;2.15;;;;;;;13.80;65.53;100973.00;5006454;28;20101;-47
2022/08/17 02:39:04;;;;;;;9.98;2.08;;;;;;;13.75;65.83;100971.28;5017724;28;20448;-43
2022/08/17 02:41:31;;;;;;;8.70;2.45;;;;;;;13.68;65.83;100979.47;4992039;28;20129;-47
2022/08/17 02:43:57;;;;;;;8.88;3.38;;;;;;;13.68;65.83;100973.91;5013647;28;20046;-44
2022/08/17 02:46:24;;;;;;;6.68;2.53;;;;;;;13.72;66.12;100974.00;5013633;28;20041;-43
2022/08/17 02:48:51;;;;;;;4.35;1.80;;;;;;;13.74;66.02;100966.09;5007346;28;20062;-43
2022/08/17 02:51:18;;;;;;;10.10;2.20;;;;;;;13.74;65.96;100966.88;5007916;28;20065;-46
2022/08/17 02:53:45;;;;;;;12.13;3.17;;;;;;;13.76;66.31;100975.72;5001707;28;20504;-47
2022/08/17 02:56:12;;;;;;;3.95;1.98;;;;;;;13.77;66.34;100973.72;5000456;28;20046;-42
2022/08/17 02:58:39;;;;;;;9.30;2.28;;;;;;;13.75;66.30;100974.09;5016409;28;20070;-43
2022/08/17 03:01:08;;;;;;;7.63;2.25;;;;;;;13.75;66.52;100973.28;5089538;22;20121;-45
2022/08/17 03:03:36;;;;;;;7.25;3.22;;;;;;;13.75;66.54;100968.50;5011755;28;20466;-43
2022/08/17 03:06:03;;;;;;;16.88;3.97;;;;;;;13.76;66.57;100970.16;5005758;28;20053;-43
2022/08/17 03:08:30;;;;;;;7.97;2.75;;;;;;;13.73;66.86;100965.28;5025505;28;20482;-44
2022/08/17 03:10:57;;;;;;;4.75;2.28;;;;;;;13.72;66.73;100960.88;5029390;28;20069;-46
2022/08/17 03:13:24;;;;;;;9.65;2.88;;;;;;;13.71;67.01;100961.25;5026226;28;20045;-47
2022/08/17 03:15:50;;;;;;;6.35;2.08;;;;;;;13.71;67.09;100964.84;5024705;28;20132;-43
2022/08/17 03:18:19;;;;;;;5.95;2.10;;;;;;;13.69;66.97;100975.50;5018926;28;20080;-43
2022/08/17 03:20:57;;;;;;;9.27;2.58;;;;;;;13.70;67.00;100966.00;5011965;28;20436;-42
2022/08/17 03:23:25;;;;;;;4.90;1.75;;;;;;;13.71;67.20;100976.00;5011393;28;20076;-43
2022/08/17 03:25:54;;;;;;;7.47;2.28;;;;;;;13.70;67.16;100967.97;5019746;28;20107;-45
2022/08/17 03:28:22;;;;;;;7.55;2.40;;;;;;;13.67;67.33;100972.28;5017396;28;20046;-43
2022/08/17 03:30:49;;;;;;;6.13;2.47;;;;;;;13.71;67.32;100976.00;5027456;28;20049;-44
2022/08/17 03:33:17;;;;;;;5.90;2.33;;;;;;;13.73;67.37;100965.28;5015440;28;20073;-43
2022/08/17 03:35:44;;;;;;;7.05;2.05;;;;;;;13.73;67.21;100970.84;5012891;28;20045;-43
2022/08/17 03:38:12;;;;;;;11.73;4.15;;;;;;;13.76;67.57;100980.47;5018227;28;20399;-43
2022/08/17 03:40:42;;;;;;;5.55;2.00;;;;;;;13.79;67.54;100979.75;5019277;28;20523;-43
2022/08/17 03:43:30;;;;;;;10.63;3.88;;;;;;;13.83;67.39;100973.09;5021745;28;20455;-43
2022/08/17 03:57:23;;;;;;;9.27;2.47;;;;;;;13.88;67.80;100981.16;5021546;28;20046;-46
2022/08/17 03:59:51;;;;;;;5.40;1.77;;;;;;;13.87;67.88;100987.88;5021573;28;20053;-43
2022/08/17 04:02:20;;;;;;;9.25;3.75;;;;;;;13.90;67.88;100980.78;5020209;28;20703;-43
2022/08/17 04:04:51;;;;;;;7.82;2.00;;;;;;;13.93;68.02;100977.28;5016693;28;20077;-44
2022/08/17 04:07:19;;;;;;;6.53;2.03;;;;;;;13.93;68.22;100986.44;5019138;28;20091;-43
2022/08/17 04:09:46;;;;;;;10.98;2.85;;;;;;;13.95;68.20;100986.09;5011880;28;20083;-43
2022/08/17 04:12:15;;;;;;;8.32;2.22;;;;;;;13.96;68.55;100991.28;5000584;28;20133;-44
2022/08/17 04:14:42;;;;;;;6.68;2.15;;;;;;;13.98;68.43;100988.94;5023693;28;20091;-44
2022/08/17 04:17:27;;;;;;;8.48;2.42;;;;;;;13.98;68.19;100988.94;5021622;28;20057;-43
2022/08/17 04:19:54;;;;;;;8.25;2.60;;;;;;;13.97;68.18;100998.47;5021786;28;20446;-42
2022/08/17 04:22:22;;;;;;;6.05;1.55;;;;;;;13.96;68.20;100990.47;5014970;28;20565;-43
2022/08/17 04:25:18;;;;;;;10.23;2.60;;;;;;;13.99;68.42;100990.56;5024072;28;20513;-49
2022/08/17 04:27:47;;;;;;;7.35;2.35;;;;;;;13.99;68.04;100990.56;5019161;28;20410;-46
2022/08/17 04:30:14;;;;;;;6.18;2.67;;;;;;;13.97;67.86;100992.09;5017734;28;20083;-46
2022/08/17 04:32:59;;;;;;;11.82;2.40;;;;;;;13.96;67.85;100994.06;5003278;28;20063;-43
2022/08/17 04:35:48;;;;;;;5.65;2.58;;;;;;;13.98;67.47;100986.16;5018262;28;20046;-43
2022/08/17 04:38:18;;;;;;;6.32;2.03;;;;;;;14.00;67.27;100996.94;5017455;28;20393;-43
2022/08/17 04:43:32;;;;;;;5.50;2.63;;;;;;;13.85;67.42;100998.56;5018234;28;20107;-43
2022/08/17 04:46:02;;;;;;;6.30;3.05;;;;;;;13.79;67.39;100999.22;5023399;28;20051;-43
2022/08/17 04:48:41;;;;;;;8.55;2.50;;;;;;;13.71;67.80;101000.22;5015860;28;20077;-43
2022/08/17 04:51:16;;;;;;;5.93;2.40;;;;;;;13.72;67.72;101005.41;5020554;28;20541;-43
2022/08/17 04:53:46;;;;;;;9.75;2.35;;;;;;;13.66;67.97;100998.50;5019264;28;20460;-44
2022/08/17 04:56:21;;;;;;;4.82;2.08;;;;;;;13.58;68.06;100996.69;5012833;28;20054;-43
2022/08/17 04:58:50;;;;;;;5.90;2.28;;;;;;;13.60;67.93;101005.50;5026965;28;20052;-47
2022/08/17 05:01:21;;;;;;;5.05;2.05;;;;;;;13.57;68.19;100995.09;5023308;28;20053;-43
2022/08/17 05:03:55;;;;;;;5.55;2.33;;;;;;;13.59;68.08;101009.44;5017215;28;20103;-43
2022/08/17 05:06:22;;;;;;;9.70;2.20;;;;;;;13.56;68.07;101021.28;5018252;28;20132;-43
2022/08/17 05:08:50;;;;;;;7.10;2.28;;;;;;;13.55;68.17;101011.34;5023739;28;20080;-45
2022/08/17 05:11:17;;;;;;;7.80;2.35;;;;;;;13.50;67.93;101011.63;5021960;28;20144;-43
2022/08/17 05:13:44;;;;;;;12.63;2.45;;;;;;;13.51;68.29;101016.00;5023108;28;20079;-43
2022/08/17 05:16:11;;;;;;;5.38;1.92;;;;;;;13.54;68.35;101018.06;5023777;28;20077;-43
2022/08/17 05:18:37;;;;;;;8.40;2.72;;;;;;;13.55;68.18;101025.25;5023458;28;20045;-43
2022/08/17 05:21:05;;;;;;;9.38;2.30;;;;;;;13.52;68.22;101016.81;5024699;28;20136;-43
2022/08/17 05:23:34;;;;;;;9.57;2.45;;;;;;;13.51;68.61;101023.53;5020293;28;20767;-43
2022/08/17 05:26:14;;;;;;;9.70;3.22;;;;;;;13.48;68.71;101024.25;5024836;28;20133;-44
2022/08/17 05:28:54;;;;;;;6.68;2.20;;;;;;;13.44;68.97;101024.16;5017381;28;20121;-47
2022/08/17 05:31:23;;;;;;;5.45;2.30;;;;;;;13.47;68.70;101023.47;5024172;28;20038;-45
2022/08/17 05:33:52;;;;;;;6.97;2.35;;;;;;;13.49;68.84;101026.69;5020734;28;20076;-45
2022/08/17 05:36:18;;;;;;;8.07;2.63;;;;;;;13.46;69.02;101034.91;5020875;28;20139;-44
2022/08/17 05:39:05;;;;;;;7.90;2.45;;;;;;;13.43;69.54;101019.75;5025022;28;20069;-43
2022/08/17 05:41:32;;;;;;;8.30;2.50;;;;;;;13.46;69.58;101024.63;5021805;28;20430;-48
2022/08/17 05:43:58;;;;;;;10.68;2.63;;;;;;;13.48;69.77;101035.38;5017742;28;20137;-44
2022/08/17 05:46:34;;;;;;;;;;;;;;;13.47;70.02;101036.56;5025827;28;20056;-44
2022/08/17 05:49:06;;;;;;;9.27;2.95;;;;;;;13.45;69.77;101039.66;5017716;28;20271;-43
2022/08/17 05:51:59;;;;;;;15.20;3.50;;;;;;;13.47;70.09;101036.56;5012033;28;20034;-46
2022/08/17 05:54:40;;;;;;;10.45;3.55;;;;;;;13.47;70.33;101040.16;5011897;28;20058;-43
2022/08/17 05:57:07;;;;;;;8.10;2.85;;;;;;;13.47;70.35;101040.16;5024571;28;20143;-44
2022/08/17 05:59:51;;;;;;;10.77;2.65;;;;;;;13.52;70.63;101048.22;5015062;28;20062;-43
2022/08/17 06:02:21;;;;;;;9.02;2.45;;;;;;;13.52;70.91;101055.75;5025725;28;20053;-44
2022/08/17 06:04:56;;;;;;;7.28;4.03;;;;;;;13.48;70.96;101041.75;5022141;28;20044;-43
2022/08/17 06:07:47;;;;;;;10.40;2.83;;;;;;;13.48;71.33;101046.50;5023753;28;20487;-43
2022/08/17 06:10:32;;;;;;;8.15;2.97;;;;;;;13.51;71.29;101048.56;5026440;28;20055;-43
2022/08/17 06:13:02;;;;;;;6.90;2.83;;;;;;;13.56;71.52;101049.09;5018874;28;20124;-44
2022/08/17 06:15:42;;;;;;;4.15;2.05;;;;;;;13.59;71.45;101053.97;5025281;28;20077;-43
2022/08/17 06:18:10;;;;;;;8.15;3.13;;;;;;;13.62;71.63;101052.44;5019777;28;20495;-44
2022/08/17 06:21:00;;;;;;;3.95;2.38;;;;;;;13.63;71.71;101054.06;5029183;28;20080;-43
2022/08/17 06:23:46;;;;;;;7.53;3.00;;;;;;;13.59;72.01;101059.53;5023850;28;20051;-44
2022/08/17 06:26:20;;;;;;;9.82;2.60;;;;;;;13.58;72.07;101069.03;5016511;28;20046;-48
2022/08/17 06:29:11;;;;;;;6.30;3.42;;;;;;;13.57;72.39;101070.22;5007359;28;20053;-46
2022/08/17 06:31:44;;;;;;;5.97;2.47;;;;;;;13.59;72.60;101079.00;5017529;28;20060;-43
2022/08/17 06:34:11;;;;;;;11.02;3.30;;;;;;;13.59;72.94;101076.22;5024110;28;20120;-44
2022/08/17 06:36:53;;;;;;;10.75;2.75;;;;;;;13.63;73.18;101079.09;5025606;28;20518;-43
2022/08/17 06:39:26;;;;;;;;;;;;;;;13.63;73.43;101071.56;5024051;28;20140;-43
2022/08/17 06:42:12;;;;;;;;;;;;;;;13.63;73.00;101079.91;5008032;28;19935;-43
2022/08/17 06:45:05;;;;;;;10.45;2.80;;;;;;;13.64;72.77;101078.72;5023312;28;20277;-43
2022/08/17 06:47:35;;;;;;;11.65;3.70;;;;;;;13.66;73.04;101073.63;5027662;28;20569;-47
2022/08/17 06:50:14;;;;;;;9.32;3.25;;;;;;;13.67;73.39;101069.69;5022713;28;20196;-44
2022/08/17 06:52:49;;;;;;;7.78;2.05;;;;;;;13.73;73.60;101075.78;5020145;28;20133;-45
2022/08/17 06:55:32;;;;;;;10.57;3.22;;;;;;;13.75;73.68;101079.81;5024256;28;20036;-43
2022/08/17 06:58:06;;;;;;;10.80;2.72;;;;;;;13.79;73.92;101069.56;5025248;28;20053;-47
2022/08/17 07:00:45;;;;;;;11.68;2.95;;;;;;;13.79;73.88;101071.56;5026915;28;20038;-46
2022/08/17 07:03:27;;;;;;;17.40;3.90;;;;;;;13.80;74.09;101076.78;5028392;28;20045;-43
2022/08/17 07:06:02;;;;;;;12.25;3.85;;;;;;;13.84;74.12;101077.69;5016741;28;20049;-43
2022/08/17 07:08:50;;;;;;;9.82;2.83;;;;;;;13.85;74.19;101079.28;5026988;28;20045;-44
2022/08/17 07:11:45;;;;;;;14.57;2.42;;;;;;;13.90;74.13;101080.97;5001352;28;20120;-43
2022/08/17 07:14:35;;;;;;;10.25;2.85;;;;;;;13.93;74.12;101083.03;5011335;28;20064;-46
2022/08/17 07:17:07;;;;;;;11.18;3.28;;;;;;;13.94;73.92;101079.91;5026566;28;20107;-43
2022/08/17 07:19:39;;;;;;;10.20;2.63;;;;;;;13.96;74.17;101074.78;5020960;28;20478;-43
2022/08/17 07:22:29;;;;;;;9.85;2.47;;;;;;;14.00;74.22;101084.03;5024500;28;20402;-43
2022/08/17 07:25:17;;;;;;;9.27;2.92;;;;;;;14.00;74.08;101086.81;5021490;28;20045;-43
2022/08/17 07:27:53;;;;;;;16.58;3.38;;;;;;;14.03;74.00;101091.66;5023103;28;20084;-43
2022/08/17 07:30:25;;;;;;;17.42;4.13;;;;;;;14.06;74.38;101087.34;5019651;28;20050;-43
2022/08/17 07:32:58;;;;;;;8.73;2.85;;;;;;;14.11;74.32;101091.84;5019505;28;20063;-44
2022/08/17 07:35:27;;;;;;;6.35;2.72;;;;;;;14.13;74.23;101095.09;5018786;28;20041;-43
2022/08/17 07:38:15;;;;;;;20.55;4.65;;;;;;;14.13;74.38;101084.75;5005030;28;20088;-45
2022/08/17 07:41:01;;;;;;;9.27;3.28;;;;;;;14.15;74.43;101087.16;5020789;28;20555;-43
2022/08/17 07:43:45;;;;;;;9.15;2.67;;;;;;;14.15;74.61;101084.38;5026008;28;20342;-43
2022/08/17 07:49:07;;;;;;;11.93;3.38;;;;;;;14.13;74.51;101073.63;5022749;28;20052;-45
2022/08/17 07:51:35;;;;;;;10.05;3.05;;;;;;;14.13;74.63;101083.94;5028266;28;20109;-43
2022/08/17 07:54:28;;;;;;;10.48;2.35;;;;;;;14.08;74.82;101075.88;5013911;28;20069;-43
2022/08/17 07:56:56;;;;;;;11.40;3.50;;;;;;;14.06;74.94;101078.22;5010917;28;20141;-43
2022/08/17 07:59:27;;;;;;;14.43;2.53;;;;;;;14.07;75.02;101080.63;5020847;28;20069;-43
2022/08/17 08:02:03;;;;;;;7.95;2.15;;;;;;;14.14;74.90;101088.34;5026141;28;20100;-43
2022/08/17 08:04:41;;;;;;;7.18;2.58;;;;;;;14.19;74.86;101090.88;5003453;28;20045;-45
2022/08/17 08:07:30;;;;;;;9.48;3.35;;;;;;;14.20;74.80;101090.50;5030017;28;20050;-44
2022/08/17 08:10:10;;;;;;;5.90;2.53;;;;;;;14.25;74.66;101084.66;5016521;28;20396;-43
2022/08/17 08:12:44;;;;;;;6.20;2.53;;;;;;;14.33;74.63;101088.44;5010921;28;20427;-43
2022/08/17 08:15:24;;;;;;;10.52;3.00;;;;;;;14.33;74.58;101094.00;5020423;28;20045;-48
2022/08/17 08:17:57;;;;;;;8.68;2.78;;;;;;;14.31;74.63;101085.19;5011714;28;20057;-43
2022/08/17 08:20:31;;;;;;;12.02;2.85;;;;;;;14.39;74.63;101087.00;5022080;28;20479;-43
2022/08/17 08:23:24;;;;;;;6.05;2.42;;;;;;;14.47;74.38;101083.19;5027127;28;20040;-43
2022/08/17 08:26:04;;;;;;;11.02;2.60;;;;;;;14.50;74.52;101083.28;5020216;28;20088;-43
2022/08/17 08:28:42;;;;;;;13.63;3.03;;;;;;;14.54;74.42;101083.34;5003092;28;20061;-47
2022/08/17 08:31:26;;;;;;;10.68;2.50;;;;;;;14.61;74.42;101086.31;5011039;28;20046;-43
2022/08/17 08:34:00;;;;;;;6.60;2.55;;;;;;;14.67;74.30;101079.25;5026268;28;20056;-42
2022/08/17 08:36:45;;;;;;;15.85;2.75;;;;;;;14.71;74.23;101082.13;5026183;28;20037;-42
2022/08/17 08:39:50;;;;;;;8.98;3.78;;;;;;;14.75;74.27;101081.03;5026462;28;20045;-43
2022/08/17 08:42:31;;;;;;;9.93;2.90;;;;;;;14.81;74.36;101081.56;5018013;28;20046;-47
2022/08/17 08:45:03;;;;;;;25.15;3.92;;;;;;;14.84;74.30;101081.66;5022585;28;20200;-43
2022/08/17 08:47:43;;;;;;;8.88;2.88;;;;;;;14.88;74.36;101076.16;5028276;28;20053;-43
2022/08/17 08:50:14;;;;;;;10.57;3.03;;;;;;;14.93;74.11;101073.84;5014364;28;20062;-46
2022/08/17 08:53:22;;;;;;;7.57;2.50;;;;;;;15.03;74.24;101073.28;5027253;28;20049;-46
2022/08/17 08:56:11;;;;;;;8.65;2.70;;;;;;;15.08;74.20;101074.97;5016128;28;20056;-45
2022/08/17 08:58:59;;;;;;;9.40;2.85;;;;;;;15.14;74.21;101079.88;5017767;28;20053;-45
2022/08/17 09:01:50;;;;;;;20.50;4.53;;;;;;;15.14;74.18;101085.44;5021718;28;20137;-44
2022/08/17 09:04:36;;;;;;;8.77;2.67;;;;;;;15.14;74.00;101081.88;5011262;28;20044;-44
2022/08/17 09:07:46;;;;;;;12.10;2.92;;;;;;;15.17;74.21;101090.28;5018026;28;20065;-44
2022/08/17 09:10:37;;;;;;;8.15;2.65;;;;;;;15.21;74.11;101096.75;5020210;28;20041;-45
2022/08/17 09:13:42;;;;;;;9.60;3.22;;;;;;;15.24;74.16;101089.66;5020779;28;20080;-44
2022/08/17 09:16:15;;;;;;;9.63;2.90;;;;;;;15.28;74.11;101090.50;5014166;28;20045;-45
2022/08/17 09:18:51;;;;;;;7.47;2.47;;;;;;;15.33;74.33;101100.59;5017767;28;20487;-48
2022/08/17 09:21:37;;;;;;;7.75;2.30;;;;;;;15.36;74.35;101091.44;5014198;28;20112;-46
2022/08/17 09:24:23;;;;;;;9.90;2.20;;;;;;;15.43;74.46;101095.22;5018812;28;20103;-45
2022/08/17 09:26:59;;;;;;;10.07;2.92;;;;;;;15.50;74.74;101092.56;5023361;28;20054;-49
2022/08/17 09:29:33;;;;;;;7.63;3.22;;;;;;;15.60;74.67;101097.53;5021671;28;20045;-46
2022/08/17 09:32:08;;;;;;;9.95;2.42;;;;;;;15.67;74.79;101103.25;5020339;28;20045;-47
2022/08/17 09:34:45;;;;;;;7.00;2.63;;;;;;;15.77;75.10;101101.84;5005072;28;20065;-51
2022/08/17 09:37:20;;;;;;;11.38;3.30;;;;;;;15.87;75.36;101104.00;5019586;28;20050;-47
2022/08/17 09:40:36;;;;;;;7.68;2.55;;;;;;;15.92;75.21;101109.28;5013283;28;20050;-48
2022/08/17 09:43:11;;;;;;;9.13;3.20;;;;;;;15.98;75.64;101099.44;5007812;28;20107;-45
2022/08/17 09:46:00;;;;;;;17.25;3.65;;;;;;;16.03;75.74;101107.50;5018057;28;20377;-44
2022/08/17 09:48:39;;;;;;;21.52;5.05;;;;;;;16.14;75.80;101108.47;5016986;28;20044;-45
2022/08/17 09:51:14;;;;;;;8.82;2.78;;;;;;;16.21;75.95;101122.56;5019340;28;20177;-44
2022/08/17 09:53:41;;;;;;;7.15;2.65;;;;;;;16.25;76.06;101123.44;5015818;28;20055;-44
2022/08/17 09:56:25;;;;;;;8.98;2.50;;;;;;;16.33;76.09;101127.97;5017531;28;20131;-49
2022/08/17 09:59:15;;;;;;;7.85;3.63;;;;;;;16.29;76.19;101129.88;5014640;28;20522;-47
2022/08/17 10:02:32;;;;;;;9.27;2.30;;;;;;;16.31;76.34;101121.09;5013601;28;20068;-44
2022/08/17 10:05:10;;;;;;;8.40;2.58;;;;;;;16.39;76.26;101123.63;5018742;28;20399;-44
2022/08/17 10:07:43;;;;;;;9.82;2.42;;;;;;;16.50;76.42;101123.00;5020389;28;20049;-44
2022/08/17 10:10:34;;;;;;;8.23;3.38;;;;;;;16.54;76.52;101130.31;5006202;28;20059;-44
2022/08/17 10:13:18;;;;;;;9.20;3.33;;;;;;;16.56;76.58;101133.53;5009140;28;20521;-45
2022/08/17 10:16:06;;;;;;;15.23;3.20;;;;;;;16.60;76.82;101141.97;5010547;28;20165;-50
2022/08/17 10:18:34;;;;;;;6.65;2.88;;;;;;;16.66;76.82;101137.66;5018258;28;20141;-43
2022/08/17 10:27:47;;;;;;;8.85;3.00;;;;;;;16.85;76.38;101135.56;5021558;28;20507;-43
2022/08/17 10:30:17;;;;;;;8.73;2.70;;;;;;;17.03;76.27;101133.00;5016270;28;20046;-43
2022/08/17 10:32:46;;;;;;;7.68;2.50;;;;;;;17.26;76.02;101135.69;5014568;28;20415;-43
2022/08/17 10:35:46;;;;;;;7.70;4.72;;;;;;;17.36;75.92;101138.63;5021399;28;20049;-43
2022/08/17 10:38:44;;;;;;;14.02;4.45;;;;;;;17.47;75.78;101136.72;5024113;28;20054;-45
2022/08/17 10:41:31;;;;;;;7.53;2.95;;;;;;;17.49;75.83;101141.97;5014007;28;20057;-44
2022/08/17 10:44:22;;;;;;;11.30;3.95;;;;;;;17.40;75.98;101139.47;5008421;28;20430;-43
2022/08/17 10:47:16;;;;;;;8.15;2.97;;;;;;;17.29;75.97;101143.34;5023412;28;20073;-47
2022/08/17 10:49:52;;;;;;;8.30;4.30;;;;;;;17.19;76.12;101139.19;5012318;28;20124;-44
2022/08/17 10:52:22;;;;;;;7.28;3.63;;;;;;;17.10;76.56;101133.09;5022111;28;20049;-43
2022/08/17 10:54:50;;;;;;;4.70;2.92;;;;;;;17.11;76.75;101140.28;5020997;28;20050;-45
2022/08/17 10:57:30;;;;;;;10.68;6.03;;;;;;;17.15;76.81;101129.97;5021008;28;20041;-45
2022/08/17 11:00:32;;;;;;;5.55;3.38;;;;;;;17.21;76.66;101128.41;5023630;28;20084;-45
2022/08/17 11:02:59;;;;;;;6.03;3.63;;;;;;;17.20;76.64;101126.81;5011212;28;20137;-44
2022/08/17 11:06:05;;;;;;;7.85;3.22;;;;;;;17.25;76.80;101128.47;5007441;28;20095;-44
2022/08/17 11:09:02;;;;;;;7.25;2.75;;;;;;;17.23;76.47;101131.66;4931186;29;20094;-44
2022/08/17 11:11:42;;;;;;;8.05;3.00;;;;;;;17.20;76.57;101140.81;4931475;29;20047;-47
2022/08/17 11:14:10;;;;;;;10.15;3.40;;;;;;;17.28;76.53;101138.91;5008233;28;20137;-43
2022/08/17 11:16:46;;;;;;;29.70;4.88;;;;;;;17.25;76.56;101140.47;5023382;28;20385;-45
2022/08/17 11:19:35;;;;;;;8.00;3.65;;;;;;;17.22;76.73;101143.22;5011244;28;20050;-46
2022/08/17 11:22:05;;;;;;;14.50;3.90;;;;;;;17.18;76.67;101143.19;5011292;28;20439;-47
2022/08/17 11:24:43;;;;;;;9.02;3.67;;;;;;;17.13;76.85;101140.72;5011320;28;20056;-44
2022/08/17 11:27:33;;;;;;;10.05;3.05;;;;;;;17.13;76.75;101137.91;5021961;28;20067;-44
2022/08/17 11:30:04;;;;;;;5.22;2.88;;;;;;;17.08;76.67;101132.66;5012110;28;20077;-47
2022/08/17 11:32:36;;;;;;;6.07;3.63;;;;;;;17.12;76.87;101141.09;5011313;28;20590;-45
2022/08/17 11:35:20;;;;;;;2.25;1.90;;;;;;;17.19;76.64;101138.38;5029813;28;20048;-44
2022/08/17 11:38:01;;;;;;;6.78;3.50;;;;;;;17.26;76.31;101138.50;5018062;28;20053;-43
2022/08/17 11:41:05;;;;;;;10.60;3.88;;;;;;;17.28;76.52;101144.50;5010974;28;20081;-45
2022/08/17 11:44:14;;;;;;;7.95;3.55;;;;;;;17.34;76.46;101146.56;5024884;28;20038;-45
2022/08/17 11:52:46;;;;;;;7.13;2.42;;;;;;;17.67;76.24;101156.19;5010982;28;20136;-43
2022/08/17 11:55:30;;;;;;;7.60;3.47;;;;;;;17.78;76.12;101154.31;5023955;28;20116;-46
2022/08/17 11:58:28;;;;;;;6.15;3.25;;;;;;;17.85;76.18;101155.19;5018622;28;20053;-43
2022/08/17 12:01:10;;;;;;;8.37;4.43;;;;;;;17.97;75.83;101154.94;5028126;28;20049;-43
2022/08/17 12:03:43;;;;;;;7.25;4.18;;;;;;;18.03;75.84;101167.38;5021188;28;20167;-44
2022/08/17 12:06:40;;;;;;;7.93;3.10;;;;;;;18.09;75.83;101157.44;5011777;28;20518;-44
2022/08/17 12:09:19;;;;;;;5.70;3.10;;;;;;;18.13;75.68;101166.69;5011285;28;20046;-48
2022/08/17 12:11:54;;;;;;;8.63;3.70;;;;;;;18.21;75.66;101161.97;5022933;28;20088;-42
2022/08/17 12:14:45;;;;;;;7.75;4.20;;;;;;;18.25;75.72;101157.97;5021685;28;20046;-43
2022/08/17 12:17:34;;;;;;;5.28;3.40;;;;;;;18.36;75.70;101158.06;5010555;28;20073;-43
2022/08/17 12:20:30;;;;;;;8.88;3.78;;;;;;;18.35;75.74;101145.25;5022165;28;20084;-43
2022/08/17 12:23:08;;;;;;;6.40;3.83;;;;;;;18.34;75.64;101143.66;5022710;28;20056;-44
2022/08/17 12:25:44;;;;;;;7.97;3.78;;;;;;;18.38;75.59;101138.06;5010195;28;20407;-43
2022/08/17 12:28:26;;;;;;;6.85;4.40;;;;;;;18.43;74.82;101138.50;5007150;28;20391;-43
2022/08/17 12:31:02;;;;;;;6.85;3.97;;;;;;;18.51;74.67;101137.38;5029522;28;20042;-43
2022/08/17 12:33:29;;;;;;;7.10;4.13;;;;;;;18.53;74.57;101137.00;5023883;28;20038;-42
2022/08/17 12:36:01;;;;;;;8.63;3.78;;;;;;;18.63;73.93;101128.69;5009936;28;20443;-42
2022/08/17 12:38:34;;;;;;;15.68;4.97;;;;;;;18.70;74.13;101123.09;5011339;28;20333;-43